Detall de PIREP

Printer-friendly versionPDF version

[2011/05/20 20:52:00]
Flight IATA:CT3233
Pilot Number:037
Company ICAO:CAT
Aircraft Type:B763/F
PAX:109
Departing Airport: LEMD
Destination Airport: LEPA
Alternate Airport:LEBL
Online: VATSIM
Route:NANDO UW107 CLS UN733 GATOS
Flight Level:F250
No Slew and time accel
No pause
Crash detect
Detect pilot in Cockpit between each 30 and 45 minutes
20:52 Zero fuel Weight: 228947 Lbs, Fuel Weight: 33346 Lbs
20:52 VATSIM:LEMD 202030Z 05004KT 010V090 9999 FEW075 20/08 Q1019 NOSIG
20:52 VATSIM:LEPA 202030Z 04007KT 9999 FEW018 18/15 Q1018 NOSIG
21:12 Parking Brakes off
21:27 Take-off
21:27 Take off Weight: 259803 Lbs
21:27 Wind: 047º @ 004 Knots Heading: 031º
21:27 POS N40º 30´ 44´´ W003º 34´ 16´´
21:27 Flaps:3 at 172 Knots
21:27 Gear Up: 179 Knots
21:27 Flaps:2 at 170 Knots
21:28 Flaps:1 at 182 Knots
21:28 Flaps:0 at 221 Knots
21:34 TOC
21:34 Fuel Weight: 27199 Lb
21:42 Wind:086º@010 Knots Heading: 103º Ground Speed: 493 Knots Altitude 25180 ft
21:55 TOD
21:55 Fuel Weight: 22382 Lb
21:57 Wind:010º@017 Knots Heading: 088º Ground Speed: 427 Knots Altitude 23366 ft
22:11 Flaps:1 at 201 Knots
22:12 Wind:029º@011 Knots Heading: 069º Ground Speed: 177 Knots Altitude 3182 ft
22:12 Flaps:2 at 168 Knots
22:16 Flaps:3 at 198 Knots
22:17 Flaps:4 at 181 Knots
22:17 Flaps:5 at 170 Knots
22:18 Gear Down: 146 Knots
22:18 Flaps:6 at 140 Knots
22:19 TouchDown:Rate -126 ft/min Speed: 119 Knots
22:19 VATSIM:LEPA 202200Z 02004KT 9999 FEW020 18/15 Q1018 NOSIG
22:19 Land
22:19 Wind:022º@004 Knots
22:19 Heading: 059º
22:19 Flight Duration: 00:52
22:19 Landing Weight: 248861 Lbs
22:19 POS N39º 33´ 15´´ E002º 43´ 32´´
22:22 Parking brakes on
22:22 Block to Block Duration: 01:10
22:22 Final Fuel: 19270 Lbls
22:22 Spent Fuel: 14076 Lbls
22:22 Flight Length: 316 NM
22:22 TOD Land Length: 109 NM

Exportar CSV

Powered by Drupal - Modified by Danger4k